sensor_id;sensor_type;location;lat;lon;timestamp;P1;durP1;ratioP1;P2;durP2;ratioP2
9854;SDS011;4966;48.112;9.282;2023-02-28T00:00:19;6.38;;;3.03;;
9854;SDS011;4966;48.112;9.282;2023-02-28T00:02:45;4.45;;;2.72;;
9854;SDS011;4966;48.112;9.282;2023-02-28T00:05:12;7.03;;;2.60;;
9854;SDS011;4966;48.112;9.282;2023-02-28T00:07:39;4.47;;;2.08;;
9854;SDS011;4966;48.112;9.282;2023-02-28T00:10:05;4.97;;;2.33;;
9854;SDS011;4966;48.112;9.282;2023-02-28T00:12:32;6.38;;;3.25;;
9854;SDS011;4966;48.112;9.282;2023-02-28T00:14:59;4.97;;;2.20;;
9854;SDS011;4966;48.112;9.282;2023-02-28T00:17:24;4.75;;;2.47;;
9854;SDS011;4966;48.112;9.282;2023-02-28T00:19:50;6.75;;;3.85;;
9854;SDS011;4966;48.112;9.282;2023-02-28T00:22:19;3.53;;;1.88;;
9854;SDS011;4966;48.112;9.282;2023-02-28T00:24:46;5.65;;;2.88;;
9854;SDS011;4966;48.112;9.282;2023-02-28T00:27:12;8.25;;;2.60;;
9854;SDS011;4966;48.112;9.282;2023-02-28T00:29:37;5.75;;;2.42;;
9854;SDS011;4966;48.112;9.282;2023-02-28T00:32:04;4.22;;;1.40;;
9854;SDS011;4966;48.112;9.282;2023-02-28T00:34:29;3.97;;;1.48;;
9854;SDS011;4966;48.112;9.282;2023-02-28T00:36:55;7.13;;;2.60;;
9854;SDS011;4966;48.112;9.282;2023-02-28T00:39:20;2.72;;;1.58;;
9854;SDS011;4966;48.112;9.282;2023-02-28T00:41:46;5.00;;;2.13;;
9854;SDS011;4966;48.112;9.282;2023-02-28T00:44:11;5.05;;;2.08;;
9854;SDS011;4966;48.112;9.282;2023-02-28T00:46:37;4.25;;;2.35;;
9854;SDS011;4966;48.112;9.282;2023-02-28T00:49:02;4.90;;;1.85;;
9854;SDS011;4966;48.112;9.282;2023-02-28T00:51:28;8.70;;;2.42;;
9854;SDS011;4966;48.112;9.282;2023-02-28T00:53:53;3.67;;;1.98;;
9854;SDS011;4966;48.112;9.282;2023-02-28T00:56:19;4.57;;;1.83;;
9854;SDS011;4966;48.112;9.282;2023-02-28T00:58:44;4.88;;;2.22;;
9854;SDS011;4966;48.112;9.282;2023-02-28T01:01:09;4.60;;;2.40;;
9854;SDS011;4966;48.112;9.282;2023-02-28T01:03:35;4.93;;;2.45;;
9854;SDS011;4966;48.112;9.282;2023-02-28T01:06:00;3.85;;;1.90;;
9854;SDS011;4966;48.112;9.282;2023-02-28T01:08:26;5.18;;;2.03;;
9854;SDS011;4966;48.112;9.282;2023-02-28T01:10:52;5.78;;;2.50;;
9854;SDS011;4966;48.112;9.282;2023-02-28T01:13:18;8.02;;;2.35;;
9854;SDS011;4966;48.112;9.282;2023-02-28T01:15:54;6.28;;;1.90;;
9854;SDS011;4966;48.112;9.282;2023-02-28T01:18:21;4.53;;;2.03;;
9854;SDS011;4966;48.112;9.282;2023-02-28T01:20:47;6.55;;;2.63;;
9854;SDS011;4966;48.112;9.282;2023-02-28T01:23:12;2.85;;;1.65;;
9854;SDS011;4966;48.112;9.282;2023-02-28T01:25:38;3.28;;;1.63;;
9854;SDS011;4966;48.112;9.282;2023-02-28T01:28:04;3.03;;;1.73;;
9854;SDS011;4966;48.112;9.282;2023-02-28T01:30:30;5.55;;;2.08;;
9854;SDS011;4966;48.112;9.282;2023-02-28T01:32:56;3.97;;;1.45;;
9854;SDS011;4966;48.112;9.282;2023-02-28T01:35:22;3.85;;;2.00;;
9854;SDS011;4966;48.112;9.282;2023-02-28T01:37:47;2.90;;;1.48;;
9854;SDS011;4966;48.112;9.282;2023-02-28T01:40:13;3.08;;;1.60;;
9854;SDS011;4966;48.112;9.282;2023-02-28T01:42:39;2.42;;;1.58;;
9854;SDS011;4966;48.112;9.282;2023-02-28T01:47:52;5.93;;;2.03;;
9854;SDS011;4966;48.112;9.282;2023-02-28T01:50:23;3.55;;;1.52;;
9854;SDS011;4966;48.112;9.282;2023-02-28T01:52:51;3.20;;;1.40;;
9854;SDS011;4966;48.112;9.282;2023-02-28T01:55:21;2.70;;;1.50;;
9854;SDS011;4966;48.112;9.282;2023-02-28T01:57:50;5.93;;;1.40;;
9854;SDS011;4966;48.112;9.282;2023-02-28T02:00:20;2.75;;;1.25;;
9854;SDS011;4966;48.112;9.282;2023-02-28T02:02:50;4.47;;;2.05;;
9854;SDS011;4966;48.112;9.282;2023-02-28T02:05:21;2.95;;;1.42;;
9854;SDS011;4966;48.112;9.282;2023-02-28T02:07:50;3.70;;;2.05;;
9854;SDS011;4966;48.112;9.282;2023-02-28T02:23:59;4.32;;;1.88;;
9854;SDS011;4966;48.112;9.282;2023-02-28T02:35:05;9.32;;;0.60;;
9854;SDS011;4966;48.112;9.282;2023-02-28T02:37:38;3.80;;;1.48;;
9854;SDS011;4966;48.112;9.282;2023-02-28T02:47:55;5.18;;;2.28;;
9854;SDS011;4966;48.112;9.282;2023-02-28T02:50:25;3.50;;;1.55;;
9854;SDS011;4966;48.112;9.282;2023-02-28T02:52:55;5.20;;;1.98;;
9854;SDS011;4966;48.112;9.282;2023-02-28T02:55:24;2.70;;;1.20;;
9854;SDS011;4966;48.112;9.282;2023-02-28T02:57:55;4.00;;;2.20;;
9854;SDS011;4966;48.112;9.282;2023-02-28T03:00:28;3.30;;;1.65;;
9854;SDS011;4966;48.112;9.282;2023-02-28T03:03:00;4.35;;;1.67;;
9854;SDS011;4966;48.112;9.282;2023-02-28T03:05:27;3.17;;;2.00;;
9854;SDS011;4966;48.112;9.282;2023-02-28T03:07:57;5.18;;;1.92;;
9854;SDS011;4966;48.112;9.282;2023-02-28T03:10:30;5.00;;;2.40;;
9854;SDS011;4966;48.112;9.282;2023-02-28T03:26:56;2.88;;;1.42;;
9854;SDS011;4966;48.112;9.282;2023-02-28T03:29:31;3.60;;;1.90;;
9854;SDS011;4966;48.112;9.282;2023-02-28T03:32:03;4.22;;;1.85;;
9854;SDS011;4966;48.112;9.282;2023-02-28T03:34:37;2.67;;;1.75;;
9854;SDS011;4966;48.112;9.282;2023-02-28T03:37:07;4.07;;;1.70;;
9854;SDS011;4966;48.112;9.282;2023-02-28T03:39:44;5.07;;;2.50;;
9854;SDS011;4966;48.112;9.282;2023-02-28T03:42:15;4.20;;;1.55;;
9854;SDS011;4966;48.112;9.282;2023-02-28T03:44:45;5.57;;;2.53;;
9854;SDS011;4966;48.112;9.282;2023-02-28T03:47:16;2.83;;;1.25;;
9854;SDS011;4966;48.112;9.282;2023-02-28T03:50:01;4.85;;;2.33;;
9854;SDS011;4966;48.112;9.282;2023-02-28T03:55:00;13.48;;;2.67;;
9854;SDS011;4966;48.112;9.282;2023-02-28T04:00:45;3.45;;;1.58;;
9854;SDS011;4966;48.112;9.282;2023-02-28T04:03:12;6.78;;;2.33;;
9854;SDS011;4966;48.112;9.282;2023-02-28T04:05:48;3.75;;;1.58;;
9854;SDS011;4966;48.112;9.282;2023-02-28T04:08:17;3.58;;;2.10;;
9854;SDS011;4966;48.112;9.282;2023-02-28T04:10:43;6.82;;;2.20;;
9854;SDS011;4966;48.112;9.282;2023-02-28T04:13:15;6.95;;;2.38;;
9854;SDS011;4966;48.112;9.282;2023-02-28T04:15:41;5.25;;;1.98;;
9854;SDS011;4966;48.112;9.282;2023-02-28T04:18:06;5.15;;;2.10;;
9854;SDS011;4966;48.112;9.282;2023-02-28T04:20:31;4.72;;;1.73;;
9854;SDS011;4966;48.112;9.282;2023-02-28T04:22:57;5.75;;;2.22;;
9854;SDS011;4966;48.112;9.282;2023-02-28T04:25:22;6.00;;;2.50;;
9854;SDS011;4966;48.112;9.282;2023-02-28T04:27:47;4.00;;;1.52;;
9854;SDS011;4966;48.112;9.282;2023-02-28T04:30:13;5.97;;;2.70;;
9854;SDS011;4966;48.112;9.282;2023-02-28T04:32:38;5.00;;;1.85;;
9854;SDS011;4966;48.112;9.282;2023-02-28T04:35:03;3.90;;;1.70;;
9854;SDS011;4966;48.112;9.282;2023-02-28T04:37:29;3.72;;;1.80;;
9854;SDS011;4966;48.112;9.282;2023-02-28T04:39:55;3.97;;;2.03;;
9854;SDS011;4966;48.112;9.282;2023-02-28T04:42:20;5.20;;;2.50;;
9854;SDS011;4966;48.112;9.282;2023-02-28T04:44:45;3.97;;;1.98;;
9854;SDS011;4966;48.112;9.282;2023-02-28T04:47:12;6.30;;;2.60;;
9854;SDS011;4966;48.112;9.282;2023-02-28T04:49:37;3.20;;;1.83;;
9854;SDS011;4966;48.112;9.282;2023-02-28T04:52:03;5.55;;;2.25;;
9854;SDS011;4966;48.112;9.282;2023-02-28T04:54:29;6.72;;;2.28;;
9854;SDS011;4966;48.112;9.282;2023-02-28T04:56:54;6.30;;;2.85;;
9854;SDS011;4966;48.112;9.282;2023-02-28T04:59:20;5.95;;;2.92;;
9854;SDS011;4966;48.112;9.282;2023-02-28T05:01:46;5.07;;;2.58;;
9854;SDS011;4966;48.112;9.282;2023-02-28T05:04:13;7.32;;;1.52;;
9854;SDS011;4966;48.112;9.282;2023-02-28T05:06:39;5.78;;;2.47;;
9854;SDS011;4966;48.112;9.282;2023-02-28T05:09:04;8.73;;;2.80;;
9854;SDS011;4966;48.112;9.282;2023-02-28T05:11:30;6.45;;;2.50;;
9854;SDS011;4966;48.112;9.282;2023-02-28T05:14:01;4.90;;;2.00;;
9854;SDS011;4966;48.112;9.282;2023-02-28T05:16:28;4.53;;;2.25;;
9854;SDS011;4966;48.112;9.282;2023-02-28T05:18:54;4.10;;;1.85;;
9854;SDS011;4966;48.112;9.282;2023-02-28T05:21:23;4.53;;;2.33;;
9854;SDS011;4966;48.112;9.282;2023-02-28T05:23:52;4.43;;;1.50;;
9854;SDS011;4966;48.112;9.282;2023-02-28T05:26:19;3.42;;;1.75;;
9854;SDS011;4966;48.112;9.282;2023-02-28T05:28:45;6.10;;;2.60;;
9854;SDS011;4966;48.112;9.282;2023-02-28T05:31:11;5.18;;;2.45;;
9854;SDS011;4966;48.112;9.282;2023-02-28T05:33:37;6.97;;;3.00;;
9854;SDS011;4966;48.112;9.282;2023-02-28T05:36:03;4.55;;;2.53;;
9854;SDS011;4966;48.112;9.282;2023-02-28T05:38:29;4.82;;;2.20;;
9854;SDS011;4966;48.112;9.282;2023-02-28T05:40:54;3.80;;;2.10;;
9854;SDS011;4966;48.112;9.282;2023-02-28T05:43:19;6.63;;;2.85;;
9854;SDS011;4966;48.112;9.282;2023-02-28T05:45:45;4.88;;;2.20;;
9854;SDS011;4966;48.112;9.282;2023-02-28T05:48:10;7.43;;;3.20;;
9854;SDS011;4966;48.112;9.282;2023-02-28T05:50:36;4.80;;;2.38;;
9854;SDS011;4966;48.112;9.282;2023-02-28T05:53:02;5.65;;;2.60;;
9854;SDS011;4966;48.112;9.282;2023-02-28T05:55:28;6.15;;;2.28;;
9854;SDS011;4966;48.112;9.282;2023-02-28T05:57:53;7.68;;;3.00;;
9854;SDS011;4966;48.112;9.282;2023-02-28T06:00:19;3.72;;;1.65;;
9854;SDS011;4966;48.112;9.282;2023-02-28T06:02:44;4.53;;;2.20;;
9854;SDS011;4966;48.112;9.282;2023-02-28T06:05:13;7.05;;;3.13;;
9854;SDS011;4966;48.112;9.282;2023-02-28T06:07:41;5.10;;;2.22;;
9854;SDS011;4966;48.112;9.282;2023-02-28T06:10:06;3.05;;;1.70;;
9854;SDS011;4966;48.112;9.282;2023-02-28T06:12:33;8.73;;;3.03;;
9854;SDS011;4966;48.112;9.282;2023-02-28T06:14:58;7.88;;;3.22;;
9854;SDS011;4966;48.112;9.282;2023-02-28T06:17:23;6.93;;;3.05;;
9854;SDS011;4966;48.112;9.282;2023-02-28T06:19:48;4.82;;;2.05;;
9854;SDS011;4966;48.112;9.282;2023-02-28T06:22:14;8.50;;;3.00;;
9854;SDS011;4966;48.112;9.282;2023-02-28T06:24:39;5.20;;;2.65;;
9854;SDS011;4966;48.112;9.282;2023-02-28T06:27:05;5.35;;;1.95;;
9854;SDS011;4966;48.112;9.282;2023-02-28T06:29:31;5.95;;;2.72;;
9854;SDS011;4966;48.112;9.282;2023-02-28T06:31:57;5.25;;;2.65;;
9854;SDS011;4966;48.112;9.282;2023-02-28T06:34:23;6.57;;;2.67;;
9854;SDS011;4966;48.112;9.282;2023-02-28T06:36:50;7.00;;;2.60;;
9854;SDS011;4966;48.112;9.282;2023-02-28T06:39:16;4.75;;;2.33;;
9854;SDS011;4966;48.112;9.282;2023-02-28T06:41:42;6.57;;;2.65;;
9854;SDS011;4966;48.112;9.282;2023-02-28T06:44:11;5.68;;;2.80;;
9854;SDS011;4966;48.112;9.282;2023-02-28T06:46:38;8.57;;;3.10;;
9854;SDS011;4966;48.112;9.282;2023-02-28T06:49:05;8.45;;;3.08;;
9854;SDS011;4966;48.112;9.282;2023-02-28T06:51:34;10.30;;;3.38;;
9854;SDS011;4966;48.112;9.282;2023-02-28T06:54:00;7.03;;;2.88;;
9854;SDS011;4966;48.112;9.282;2023-02-28T06:56:25;9.45;;;3.90;;
9854;SDS011;4966;48.112;9.282;2023-02-28T06:58:51;5.75;;;2.03;;
9854;SDS011;4966;48.112;9.282;2023-02-28T07:01:17;6.75;;;2.33;;
9854;SDS011;4966;48.112;9.282;2023-02-28T07:03:44;7.35;;;3.05;;
9854;SDS011;4966;48.112;9.282;2023-02-28T07:06:10;5.22;;;2.10;;
9854;SDS011;4966;48.112;9.282;2023-02-28T07:08:35;5.65;;;2.80;;
9854;SDS011;4966;48.112;9.282;2023-02-28T07:11:01;8.13;;;3.35;;
9854;SDS011;4966;48.112;9.282;2023-02-28T07:13:27;3.05;;;1.08;;
9854;SDS011;4966;48.112;9.282;2023-02-28T07:15:59;7.53;;;4.20;;
9854;SDS011;4966;48.112;9.282;2023-02-28T07:18:27;7.60;;;2.83;;
9854;SDS011;4966;48.112;9.282;2023-02-28T07:20:53;5.60;;;2.47;;
9854;SDS011;4966;48.112;9.282;2023-02-28T07:23:19;4.72;;;2.15;;
9854;SDS011;4966;48.112;9.282;2023-02-28T07:25:45;9.18;;;3.97;;
9854;SDS011;4966;48.112;9.282;2023-02-28T07:28:11;7.95;;;3.60;;
9854;SDS011;4966;48.112;9.282;2023-02-28T07:30:37;7.65;;;3.60;;
9854;SDS011;4966;48.112;9.282;2023-02-28T07:33:02;10.52;;;3.92;;
9854;SDS011;4966;48.112;9.282;2023-02-28T07:35:28;8.63;;;2.92;;
9854;SDS011;4966;48.112;9.282;2023-02-28T07:37:54;8.98;;;3.67;;
9854;SDS011;4966;48.112;9.282;2023-02-28T07:40:19;5.18;;;2.13;;
9854;SDS011;4966;48.112;9.282;2023-02-28T07:42:45;7.55;;;3.10;;
9854;SDS011;4966;48.112;9.282;2023-02-28T07:45:10;8.10;;;2.80;;
9854;SDS011;4966;48.112;9.282;2023-02-28T07:47:37;7.10;;;3.60;;
9854;SDS011;4966;48.112;9.282;2023-02-28T07:50:03;9.35;;;4.00;;
9854;SDS011;4966;48.112;9.282;2023-02-28T07:52:30;4.60;;;2.28;;
9854;SDS011;4966;48.112;9.282;2023-02-28T07:54:55;7.15;;;3.47;;
9854;SDS011;4966;48.112;9.282;2023-02-28T07:57:21;10.65;;;4.00;;
9854;SDS011;4966;48.112;9.282;2023-02-28T07:59:46;12.25;;;4.22;;
9854;SDS011;4966;48.112;9.282;2023-02-28T08:02:13;9.68;;;3.63;;
9854;SDS011;4966;48.112;9.282;2023-02-28T08:04:39;10.05;;;3.78;;
9854;SDS011;4966;48.112;9.282;2023-02-28T08:07:05;7.18;;;2.85;;
9854;SDS011;4966;48.112;9.282;2023-02-28T08:09:30;8.90;;;3.83;;
9854;SDS011;4966;48.112;9.282;2023-02-28T08:11:56;9.65;;;3.60;;
9854;SDS011;4966;48.112;9.282;2023-02-28T08:14:21;8.30;;;4.90;;
9854;SDS011;4966;48.112;9.282;2023-02-28T08:16:47;9.35;;;4.10;;
9854;SDS011;4966;48.112;9.282;2023-02-28T08:19:13;7.85;;;3.10;;
9854;SDS011;4966;48.112;9.282;2023-02-28T08:21:38;10.30;;;4.03;;
9854;SDS011;4966;48.112;9.282;2023-02-28T08:24:04;9.60;;;3.83;;
9854;SDS011;4966;48.112;9.282;2023-02-28T08:26:30;9.20;;;2.92;;
9854;SDS011;4966;48.112;9.282;2023-02-28T08:28:55;8.40;;;3.72;;
9854;SDS011;4966;48.112;9.282;2023-02-28T08:31:21;12.15;;;4.60;;
9854;SDS011;4966;48.112;9.282;2023-02-28T08:33:47;7.10;;;3.22;;
9854;SDS011;4966;48.112;9.282;2023-02-28T08:36:18;7.32;;;3.47;;
9854;SDS011;4966;48.112;9.282;2023-02-28T08:38:44;7.72;;;4.00;;
9854;SDS011;4966;48.112;9.282;2023-02-28T08:41:10;10.75;;;4.63;;
9854;SDS011;4966;48.112;9.282;2023-02-28T08:43:37;8.77;;;3.65;;
9854;SDS011;4966;48.112;9.282;2023-02-28T08:46:02;7.70;;;3.40;;
9854;SDS011;4966;48.112;9.282;2023-02-28T08:48:29;8.38;;;4.10;;
9854;SDS011;4966;48.112;9.282;2023-02-28T08:53:21;6.93;;;3.25;;
9854;SDS011;4966;48.112;9.282;2023-02-28T08:55:46;11.65;;;4.18;;
9854;SDS011;4966;48.112;9.282;2023-02-28T08:58:12;8.80;;;3.83;;
9854;SDS011;4966;48.112;9.282;2023-02-28T09:00:37;7.53;;;3.53;;
9854;SDS011;4966;48.112;9.282;2023-02-28T09:03:02;6.38;;;3.03;;
9854;SDS011;4966;48.112;9.282;2023-02-28T09:05:28;12.18;;;4.70;;
9854;SDS011;4966;48.112;9.282;2023-02-28T09:07:54;13.40;;;5.10;;
9854;SDS011;4966;48.112;9.282;2023-02-28T09:10:20;8.15;;;3.30;;
9854;SDS011;4966;48.112;9.282;2023-02-28T09:12:45;8.18;;;3.35;;
9854;SDS011;4966;48.112;9.282;2023-02-28T09:15:12;7.50;;;3.42;;
9854;SDS011;4966;48.112;9.282;2023-02-28T09:17:37;10.80;;;3.83;;
9854;SDS011;4966;48.112;9.282;2023-02-28T09:20:03;13.43;;;4.55;;
9854;SDS011;4966;48.112;9.282;2023-02-28T09:22:30;6.43;;;3.03;;
9854;SDS011;4966;48.112;9.282;2023-02-28T09:24:55;11.52;;;5.43;;
9854;SDS011;4966;48.112;9.282;2023-02-28T09:27:20;8.10;;;3.60;;
9854;SDS011;4966;48.112;9.282;2023-02-28T09:29:46;10.27;;;4.68;;
9854;SDS011;4966;48.112;9.282;2023-02-28T09:32:11;6.40;;;2.72;;
9854;SDS011;4966;48.112;9.282;2023-02-28T09:34:37;8.05;;;3.85;;
9854;SDS011;4966;48.112;9.282;2023-02-28T09:37:02;9.02;;;4.45;;
9854;SDS011;4966;48.112;9.282;2023-02-28T09:39:27;7.40;;;3.72;;
9854;SDS011;4966;48.112;9.282;2023-02-28T09:41:54;7.72;;;3.70;;
9854;SDS011;4966;48.112;9.282;2023-02-28T09:46:54;7.28;;;3.88;;
9854;SDS011;4966;48.112;9.282;2023-02-28T09:49:25;10.57;;;4.10;;
9854;SDS011;4966;48.112;9.282;2023-02-28T09:54:28;12.18;;;5.47;;
9854;SDS011;4966;48.112;9.282;2023-02-28T09:59:28;8.68;;;3.42;;
9854;SDS011;4966;48.112;9.282;2023-02-28T10:02:04;12.10;;;3.75;;
9854;SDS011;4966;48.112;9.282;2023-02-28T10:07:17;8.65;;;4.28;;
9854;SDS011;4966;48.112;9.282;2023-02-28T10:10:04;8.23;;;4.28;;
9854;SDS011;4966;48.112;9.282;2023-02-28T10:12:40;12.13;;;5.05;;
9854;SDS011;4966;48.112;9.282;2023-02-28T10:15:12;15.45;;;4.13;;
9854;SDS011;4966;48.112;9.282;2023-02-28T10:17:40;8.73;;;4.25;;
9854;SDS011;4966;48.112;9.282;2023-02-28T10:20:11;7.90;;;4.05;;
9854;SDS011;4966;48.112;9.282;2023-02-28T10:25:26;11.23;;;5.07;;
9854;SDS011;4966;48.112;9.282;2023-02-28T10:27:53;13.65;;;4.65;;
9854;SDS011;4966;48.112;9.282;2023-02-28T10:30:50;11.40;;;4.20;;
9854;SDS011;4966;48.112;9.282;2023-02-28T10:33:19;11.23;;;4.97;;
9854;SDS011;4966;48.112;9.282;2023-02-28T10:35:45;11.35;;;4.70;;
9854;SDS011;4966;48.112;9.282;2023-02-28T10:38:21;7.97;;;3.83;;
9854;SDS011;4966;48.112;9.282;2023-02-28T10:40:51;8.57;;;3.92;;
9854;SDS011;4966;48.112;9.282;2023-02-28T10:43:19;11.52;;;4.57;;
9854;SDS011;4966;48.112;9.282;2023-02-28T11:01:18;10.63;;;5.32;;
9854;SDS011;4966;48.112;9.282;2023-02-28T11:03:44;11.25;;;4.78;;
9854;SDS011;4966;48.112;9.282;2023-02-28T11:06:14;8.63;;;3.80;;
9854;SDS011;4966;48.112;9.282;2023-02-28T11:08:46;9.25;;;4.55;;
9854;SDS011;4966;48.112;9.282;2023-02-28T11:11:20;10.15;;;4.25;;
9854;SDS011;4966;48.112;9.282;2023-02-28T11:13:48;9.35;;;4.50;;
9854;SDS011;4966;48.112;9.282;2023-02-28T11:16:17;14.65;;;6.82;;
9854;SDS011;4966;48.112;9.282;2023-02-28T11:18:44;12.15;;;5.68;;
9854;SDS011;4966;48.112;9.282;2023-02-28T11:21:21;9.80;;;4.43;;
9854;SDS011;4966;48.112;9.282;2023-02-28T11:23:52;13.38;;;5.05;;
9854;SDS011;4966;48.112;9.282;2023-02-28T11:26:40;11.38;;;5.13;;
9854;SDS011;4966;48.112;9.282;2023-02-28T11:29:11;12.13;;;5.53;;
9854;SDS011;4966;48.112;9.282;2023-02-28T11:32:00;8.85;;;4.50;;
9854;SDS011;4966;48.112;9.282;2023-02-28T11:34:26;10.43;;;5.00;;
9854;SDS011;4966;48.112;9.282;2023-02-28T11:36:53;11.18;;;5.18;;
9854;SDS011;4966;48.112;9.282;2023-02-28T11:39:21;8.30;;;4.40;;
9854;SDS011;4966;48.112;9.282;2023-02-28T11:59:22;14.70;;;5.63;;
9854;SDS011;4966;48.112;9.282;2023-02-28T12:02:29;10.85;;;4.38;;
9854;SDS011;4966;48.112;9.282;2023-02-28T12:13:24;13.55;;;5.22;;
9854;SDS011;4966;48.112;9.282;2023-02-28T12:16:09;9.10;;;4.30;;
9854;SDS011;4966;48.112;9.282;2023-02-28T12:19:09;7.30;;;3.33;;
9854;SDS011;4966;48.112;9.282;2023-02-28T12:27:10;8.85;;;3.40;;
9854;SDS011;4966;48.112;9.282;2023-02-28T12:32:21;18.20;;;7.10;;
9854;SDS011;4966;48.112;9.282;2023-02-28T12:34:58;8.75;;;4.15;;
9854;SDS011;4966;48.112;9.282;2023-02-28T12:38:04;12.35;;;5.32;;
9854;SDS011;4966;48.112;9.282;2023-02-28T12:40:27;6.38;;;3.83;;
9854;SDS011;4966;48.112;9.282;2023-02-28T12:42:59;11.23;;;5.32;;
9854;SDS011;4966;48.112;9.282;2023-02-28T12:45:38;9.95;;;4.88;;
9854;SDS011;4966;48.112;9.282;2023-02-28T12:48:07;10.88;;;4.75;;
9854;SDS011;4966;48.112;9.282;2023-02-28T12:50:38;11.93;;;5.25;;
9854;SDS011;4966;48.112;9.282;2023-02-28T12:58:32;7.45;;;3.70;;
9854;SDS011;4966;48.112;9.282;2023-02-28T13:09:44;11.57;;;4.32;;
9854;SDS011;4966;48.112;9.282;2023-02-28T13:12:18;10.07;;;4.80;;
9854;SDS011;4966;48.112;9.282;2023-02-28T13:14:45;13.70;;;4.70;;
9854;SDS011;4966;48.112;9.282;2023-02-28T13:17:12;14.23;;;6.15;;
9854;SDS011;4966;48.112;9.282;2023-02-28T13:19:45;20.05;;;5.53;;
9854;SDS011;4966;48.112;9.282;2023-02-28T13:22:18;10.43;;;5.43;;
9854;SDS011;4966;48.112;9.282;2023-02-28T13:24:49;9.60;;;4.47;;
9854;SDS011;4966;48.112;9.282;2023-02-28T13:36:30;12.75;;;4.82;;
9854;SDS011;4966;48.112;9.282;2023-02-28T13:39:00;11.30;;;5.63;;
9854;SDS011;4966;48.112;9.282;2023-02-28T14:05:38;12.07;;;5.65;;
9854;SDS011;4966;48.112;9.282;2023-02-28T14:08:06;12.07;;;5.90;;
9854;SDS011;4966;48.112;9.282;2023-02-28T14:10:37;11.32;;;5.82;;
9854;SDS011;4966;48.112;9.282;2023-02-28T14:15:39;10.82;;;5.65;;
9854;SDS011;4966;48.112;9.282;2023-02-28T14:18:16;11.07;;;5.30;;
9854;SDS011;4966;48.112;9.282;2023-02-28T14:20:45;9.00;;;5.20;;
9854;SDS011;4966;48.112;9.282;2023-02-28T14:31:48;11.05;;;5.43;;
9854;SDS011;4966;48.112;9.282;2023-02-28T14:37:15;12.02;;;5.15;;
9854;SDS011;4966;48.112;9.282;2023-02-28T14:39:44;10.10;;;4.60;;
9854;SDS011;4966;48.112;9.282;2023-02-28T14:44:58;10.45;;;4.90;;
9854;SDS011;4966;48.112;9.282;2023-02-28T14:47:26;12.50;;;5.78;;
9854;SDS011;4966;48.112;9.282;2023-02-28T14:49:55;9.30;;;4.25;;
9854;SDS011;4966;48.112;9.282;2023-02-28T14:52:26;9.43;;;5.25;;
9854;SDS011;4966;48.112;9.282;2023-02-28T14:54:55;8.25;;;3.95;;
9854;SDS011;4966;48.112;9.282;2023-02-28T14:57:30;10.05;;;4.30;;
9854;SDS011;4966;48.112;9.282;2023-02-28T15:00:01;10.80;;;4.57;;
9854;SDS011;4966;48.112;9.282;2023-02-28T15:02:42;9.68;;;5.13;;
9854;SDS011;4966;48.112;9.282;2023-02-28T15:07:42;8.32;;;4.80;;
9854;SDS011;4966;48.112;9.282;2023-02-28T15:10:24;10.20;;;5.28;;
9854;SDS011;4966;48.112;9.282;2023-02-28T15:12:55;10.25;;;5.13;;
9854;SDS011;4966;48.112;9.282;2023-02-28T15:15:39;12.23;;;4.93;;
9854;SDS011;4966;48.112;9.282;2023-02-28T15:18:08;11.07;;;5.40;;
9854;SDS011;4966;48.112;9.282;2023-02-28T15:20:40;11.13;;;5.22;;
9854;SDS011;4966;48.112;9.282;2023-02-28T15:23:07;9.57;;;4.60;;
9854;SDS011;4966;48.112;9.282;2023-02-28T15:25:33;9.30;;;4.55;;
9854;SDS011;4966;48.112;9.282;2023-02-28T15:27:59;8.20;;;4.13;;
9854;SDS011;4966;48.112;9.282;2023-02-28T15:30:28;12.05;;;6.03;;
9854;SDS011;4966;48.112;9.282;2023-02-28T15:33:06;9.40;;;4.88;;
9854;SDS011;4966;48.112;9.282;2023-02-28T15:35:33;12.35;;;5.40;;
9854;SDS011;4966;48.112;9.282;2023-02-28T15:38:15;7.07;;;3.75;;
9854;SDS011;4966;48.112;9.282;2023-02-28T15:40:43;11.80;;;4.72;;
9854;SDS011;4966;48.112;9.282;2023-02-28T15:43:17;8.35;;;5.13;;
9854;SDS011;4966;48.112;9.282;2023-02-28T15:45:47;10.68;;;5.47;;
9854;SDS011;4966;48.112;9.282;2023-02-28T15:48:22;11.18;;;5.22;;
9854;SDS011;4966;48.112;9.282;2023-02-28T15:50:54;9.02;;;5.13;;
9854;SDS011;4966;48.112;9.282;2023-02-28T15:53:24;11.00;;;6.18;;
9854;SDS011;4966;48.112;9.282;2023-02-28T15:55:55;10.07;;;5.00;;
9854;SDS011;4966;48.112;9.282;2023-02-28T15:58:25;7.72;;;4.32;;
9854;SDS011;4966;48.112;9.282;2023-02-28T16:01:05;14.50;;;5.32;;
9854;SDS011;4966;48.112;9.282;2023-02-28T16:03:51;12.00;;;4.20;;
9854;SDS011;4966;48.112;9.282;2023-02-28T16:09:09;13.95;;;5.18;;
9854;SDS011;4966;48.112;9.282;2023-02-28T16:11:45;8.38;;;4.30;;
9854;SDS011;4966;48.112;9.282;2023-02-28T16:14:15;14.65;;;6.30;;
9854;SDS011;4966;48.112;9.282;2023-02-28T16:16:49;11.38;;;5.43;;
9854;SDS011;4966;48.112;9.282;2023-02-28T16:19:17;10.40;;;5.57;;
9854;SDS011;4966;48.112;9.282;2023-02-28T16:21:43;9.38;;;4.85;;
9854;SDS011;4966;48.112;9.282;2023-02-28T16:24:08;13.10;;;5.28;;
9854;SDS011;4966;48.112;9.282;2023-02-28T16:26:34;14.23;;;6.03;;
9854;SDS011;4966;48.112;9.282;2023-02-28T16:29:02;9.55;;;4.30;;
9854;SDS011;4966;48.112;9.282;2023-02-28T16:31:28;10.13;;;4.65;;
9854;SDS011;4966;48.112;9.282;2023-02-28T16:33:56;11.98;;;5.70;;
9854;SDS011;4966;48.112;9.282;2023-02-28T16:36:22;9.80;;;4.40;;
9854;SDS011;4966;48.112;9.282;2023-02-28T16:38:51;10.02;;;4.22;;
9854;SDS011;4966;48.112;9.282;2023-02-28T16:41:26;12.80;;;5.53;;
9854;SDS011;4966;48.112;9.282;2023-02-28T16:43:54;13.25;;;5.10;;
9854;SDS011;4966;48.112;9.282;2023-02-28T16:46:26;11.75;;;4.65;;
9854;SDS011;4966;48.112;9.282;2023-02-28T16:48:55;14.73;;;4.50;;
9854;SDS011;4966;48.112;9.282;2023-02-28T16:51:20;12.63;;;5.65;;
9854;SDS011;4966;48.112;9.282;2023-02-28T16:53:45;11.50;;;4.88;;
9854;SDS011;4966;48.112;9.282;2023-02-28T16:56:18;8.73;;;3.75;;
9854;SDS011;4966;48.112;9.282;2023-02-28T16:58:48;9.38;;;4.88;;
9854;SDS011;4966;48.112;9.282;2023-02-28T17:01:15;9.65;;;4.95;;
9854;SDS011;4966;48.112;9.282;2023-02-28T17:03:40;8.57;;;4.20;;
9854;SDS011;4966;48.112;9.282;2023-02-28T17:06:16;11.48;;;5.22;;
9854;SDS011;4966;48.112;9.282;2023-02-28T17:08:49;12.20;;;5.30;;
9854;SDS011;4966;48.112;9.282;2023-02-28T17:11:16;18.20;;;6.88;;
9854;SDS011;4966;48.112;9.282;2023-02-28T17:13:42;50.40;;;16.48;;
9854;SDS011;4966;48.112;9.282;2023-02-28T17:16:16;10.90;;;4.72;;
9854;SDS011;4966;48.112;9.282;2023-02-28T17:18:47;13.02;;;5.63;;
9854;SDS011;4966;48.112;9.282;2023-02-28T17:21:13;20.17;;;8.45;;
9854;SDS011;4966;48.112;9.282;2023-02-28T17:23:40;17.95;;;6.70;;
9854;SDS011;4966;48.112;9.282;2023-02-28T17:26:05;17.25;;;7.78;;
9854;SDS011;4966;48.112;9.282;2023-02-28T17:28:31;13.65;;;5.50;;
9854;SDS011;4966;48.112;9.282;2023-02-28T17:30:57;18.55;;;7.35;;
9854;SDS011;4966;48.112;9.282;2023-02-28T17:33:22;9.18;;;4.63;;
9854;SDS011;4966;48.112;9.282;2023-02-28T17:35:47;16.70;;;5.85;;
9854;SDS011;4966;48.112;9.282;2023-02-28T17:38:17;13.52;;;5.50;;
9854;SDS011;4966;48.112;9.282;2023-02-28T17:40:43;7.90;;;4.28;;
9854;SDS011;4966;48.112;9.282;2023-02-28T17:43:09;19.48;;;6.97;;
9854;SDS011;4966;48.112;9.282;2023-02-28T17:45:35;7.45;;;3.70;;
9854;SDS011;4966;48.112;9.282;2023-02-28T17:48:01;6.82;;;3.60;;
9854;SDS011;4966;48.112;9.282;2023-02-28T17:50:27;11.95;;;4.93;;
9854;SDS011;4966;48.112;9.282;2023-02-28T17:52:52;10.65;;;5.22;;
9854;SDS011;4966;48.112;9.282;2023-02-28T17:55:18;9.23;;;3.70;;
9854;SDS011;4966;48.112;9.282;2023-02-28T17:57:46;12.93;;;4.72;;
9854;SDS011;4966;48.112;9.282;2023-02-28T18:00:12;14.85;;;5.65;;
9854;SDS011;4966;48.112;9.282;2023-02-28T18:02:40;6.75;;;3.08;;
9854;SDS011;4966;48.112;9.282;2023-02-28T18:05:06;8.00;;;3.70;;
9854;SDS011;4966;48.112;9.282;2023-02-28T18:07:33;12.02;;;5.00;;
9854;SDS011;4966;48.112;9.282;2023-02-28T18:09:59;8.73;;;4.20;;
9854;SDS011;4966;48.112;9.282;2023-02-28T18:12:24;9.25;;;4.25;;
9854;SDS011;4966;48.112;9.282;2023-02-28T18:14:50;10.93;;;4.68;;
9854;SDS011;4966;48.112;9.282;2023-02-28T18:17:15;10.25;;;4.43;;
9854;SDS011;4966;48.112;9.282;2023-02-28T18:19:41;9.98;;;4.68;;
9854;SDS011;4966;48.112;9.282;2023-02-28T18:22:06;6.57;;;3.53;;
9854;SDS011;4966;48.112;9.282;2023-02-28T18:24:32;3.97;;;2.00;;